Time;durP1;ratioP1;P1;durP2;ratioP2;P2;SDS_P1;SDS_P2;PMS_P1;PMS_P2;Temp;Humidity;BMP_temperature;BMP_pressure;BME280_temperature;BME280_humidity;BME280_pressure;Samples;Min_cycle;Max_cycle;Signal;HPM_P1;HPM_P2
2022/05/27 00:00:21;;;;;;;3.97;1.95;;;;;;;;;;5031655;28;20122;-60
2022/05/27 00:02:49;;;;;;;4.50;2.00;;;;;;;;;;5057331;28;20044;-60
2022/05/27 00:05:15;;;;;;;5.43;2.10;;;;;;;;;;5049634;28;20032;-60
2022/05/27 00:07:40;;;;;;;3.85;2.42;;;;;;;;;;5055441;28;20445;-60
2022/05/27 00:10:07;;;;;;;8.55;2.47;;;;;;;;;;5052834;28;20035;-60
2022/05/27 00:12:33;;;;;;;3.28;2.00;;;;;;;;;;5053384;28;20025;-60
2022/05/27 00:14:58;;;;;;;5.97;2.40;;;;;;;;;;5051134;28;20115;-61
2022/05/27 00:17:23;;;;;;;4.22;2.30;;;;;;;;;;5068937;28;20033;-60
2022/05/27 00:19:49;;;;;;;4.68;2.30;;;;;;;;;;5071760;28;20387;-60
2022/05/27 00:22:14;;;;;;;3.80;2.22;;;;;;;;;;5050206;28;20036;-60
2022/05/27 00:24:40;;;;;;;4.78;2.30;;;;;;;;;;5051203;28;20475;-60
2022/05/27 00:27:08;;;;;;;3.33;2.20;;;;;;;;;;5059302;28;20081;-60
2022/05/27 00:29:34;;;;;;;6.15;2.60;;;;;;;;;;5052328;28;20037;-60
2022/05/27 00:32:00;;;;;;;7.15;2.53;;;;;;;;;;5054993;28;20025;-61
2022/05/27 00:34:25;;;;;;;5.45;2.30;;;;;;;;;;5058033;28;20051;-60
2022/05/27 00:36:51;;;;;;;6.25;2.92;;;;;;;;;;5055965;28;20374;-60
2022/05/27 00:39:16;;;;;;;6.22;2.63;;;;;;;;;;5072228;28;20062;-60
2022/05/27 00:41:42;;;;;;;4.63;2.55;;;;;;;;;;5046171;28;20037;-60
2022/05/27 00:44:07;;;;;;;6.00;2.70;;;;;;;;;;5054638;28;20461;-60
2022/05/27 00:46:34;;;;;;;8.90;2.92;;;;;;;;;;5055490;28;20025;-60
2022/05/27 00:49:20;;;;;;;4.28;3.00;;;;;;;;;;5054880;28;20037;-61
2022/05/27 00:51:50;;;;;;;7.80;3.50;;;;;;;;;;5055117;28;20024;-60
2022/05/27 00:54:19;;;;;;;8.10;3.55;;;;;;;;;;5052421;28;20041;-60
2022/05/27 00:56:50;;;;;;;7.35;3.50;;;;;;;;;;5063743;28;20043;-60
2022/05/27 00:59:25;;;;;;;7.22;3.70;;;;;;;;;;5072194;28;20090;-60
2022/05/27 01:01:51;;;;;;;5.68;3.80;;;;;;;;;;5068713;28;20511;-60
2022/05/27 01:04:18;;;;;;;6.95;3.70;;;;;;;;;;5068890;28;20509;-60
2022/05/27 01:06:45;;;;;;;7.20;3.90;;;;;;;;;;5058240;28;20075;-60
2022/05/27 01:09:12;;;;;;;10.10;4.45;;;;;;;;;;5055967;28;20454;-59
2022/05/27 01:12:17;;;;;;;6.20;4.07;;;;;;;;;;5075055;28;20032;-59
2022/05/27 01:15:08;;;;;;;10.00;4.03;;;;;;;;;;5074945;28;20040;-61
2022/05/27 01:17:43;;;;;;;8.18;4.90;;;;;;;;;;5062793;28;20052;-66
2022/05/27 01:20:29;;;;;;;8.77;4.32;;;;;;;;;;5057174;28;20024;-64
2022/05/27 01:23:28;;;;;;;9.07;4.50;;;;;;;;;;5074948;28;20032;-64
2022/05/27 01:26:24;;;;;;;7.72;4.05;;;;;;;;;;5070467;28;20492;-62
2022/05/27 01:29:19;;;;;;;12.77;6.18;;;;;;;;;;5069578;28;20477;-62
2022/05/27 01:31:53;;;;;;;10.25;5.65;;;;;;;;;;5038253;28;20052;-62
2022/05/27 01:34:28;;;;;;;10.70;5.38;;;;;;;;;;5053881;28;20502;-62
2022/05/27 01:37:13;;;;;;;9.88;5.93;;;;;;;;;;5054538;28;20432;-62
2022/05/27 01:39:42;;;;;;;14.18;6.18;;;;;;;;;;5054959;28;20037;-62
2022/05/27 01:42:13;;;;;;;12.05;6.30;;;;;;;;;;5051436;28;20393;-62
2022/05/27 01:44:58;;;;;;;10.90;6.10;;;;;;;;;;5054439;28;20537;-62
2022/05/27 01:48:00;;;;;;;9.13;5.05;;;;;;;;;;5055709;28;20307;-62
2022/05/27 01:50:51;;;;;;;12.43;5.90;;;;;;;;;;5055759;28;20103;-62
2022/05/27 01:53:36;;;;;;;10.48;6.38;;;;;;;;;;5065055;28;20041;-62
2022/05/27 01:56:23;;;;;;;13.20;6.05;;;;;;;;;;5057826;28;20064;-62
2022/05/27 01:58:57;;;;;;;11.27;6.50;;;;;;;;;;5055859;28;20043;-62
2022/05/27 02:01:31;;;;;;;12.70;5.97;;;;;;;;;;5059438;28;20223;-62
2022/05/27 02:04:18;;;;;;;11.05;6.03;;;;;;;;;;5067547;28;20024;-62
2022/05/27 02:06:53;;;;;;;9.82;6.50;;;;;;;;;;5052563;28;20126;-62
2022/05/27 02:09:54;;;;;;;9.15;6.18;;;;;;;;;;5052970;28;20036;-61
2022/05/27 02:12:28;;;;;;;12.63;6.55;;;;;;;;;;5033534;28;20040;-61
2022/05/27 02:14:58;;;;;;;13.93;7.05;;;;;;;;;;5073908;28;20059;-61
2022/05/27 02:17:37;;;;;;;11.73;6.40;;;;;;;;;;5039215;28;20082;-61
2022/05/27 02:20:08;;;;;;;10.73;6.30;;;;;;;;;;5035898;28;20048;-61
2022/05/27 02:22:38;;;;;;;10.35;6.40;;;;;;;;;;5052596;28;20114;-61
2022/05/27 02:25:22;;;;;;;12.60;6.60;;;;;;;;;;5053277;28;20059;-61
2022/05/27 02:27:58;;;;;;;13.55;6.68;;;;;;;;;;5055786;28;20067;-61
2022/05/27 02:30:29;;;;;;;13.07;7.28;;;;;;;;;;5061356;28;20746;-61
2022/05/27 02:35:49;;;;;;;17.58;7.22;;;;;;;;;;5070332;28;20103;-61
2022/05/27 02:38:15;;;;;;;17.05;7.95;;;;;;;;;;5071670;28;20097;-61
2022/05/27 02:40:59;;;;;;;14.55;8.00;;;;;;;;;;5072787;28;20205;-60
2022/05/27 02:43:42;;;;;;;12.73;7.32;;;;;;;;;;5072735;28;20504;-61
2022/05/27 02:46:35;;;;;;;12.90;8.00;;;;;;;;;;5065124;28;20056;-62
2022/05/27 02:49:14;;;;;;;12.85;7.78;;;;;;;;;;5046227;28;20044;-61
2022/05/27 02:52:17;;;;;;;19.05;8.30;;;;;;;;;;5065541;28;20031;-61
2022/05/27 02:54:48;;;;;;;16.67;8.40;;;;;;;;;;5077713;28;20565;-59
2022/05/27 02:57:19;;;;;;;14.35;8.32;;;;;;;;;;5067922;28;20033;-60
2022/05/27 02:59:46;;;;;;;15.90;8.70;;;;;;;;;;5065402;28;20113;-60
2022/05/27 03:02:14;;;;;;;18.48;9.68;;;;;;;;;;5063055;28;20115;-60
2022/05/27 03:04:42;;;;;;;17.05;10.55;;;;;;;;;;5061807;28;20044;-59
2022/05/27 03:07:17;;;;;;;18.33;10.10;;;;;;;;;;5055157;28;20033;-60
2022/05/27 03:09:52;;;;;;;17.52;11.02;;;;;;;;;;5051846;28;20473;-59
2022/05/27 03:12:39;;;;;;;20.73;12.32;;;;;;;;;;5052091;28;20036;-60
2022/05/27 03:15:25;;;;;;;18.10;9.77;;;;;;;;;;5051403;28;20029;-61
2022/05/27 03:18:14;;;;;;;13.00;8.20;;;;;;;;;;5070169;28;20040;-60
2022/05/27 03:20:50;;;;;;;12.70;7.35;;;;;;;;;;5068618;28;20095;-60
2022/05/27 03:23:21;;;;;;;13.15;7.50;;;;;;;;;;5065518;28;20170;-61
2022/05/27 03:25:57;;;;;;;14.52;7.72;;;;;;;;;;5066594;28;20033;-61
2022/05/27 03:28:40;;;;;;;15.05;7.40;;;;;;;;;;5065657;28;20027;-61
2022/05/27 03:31:12;;;;;;;13.45;7.70;;;;;;;;;;5048554;28;20029;-60
2022/05/27 03:33:52;;;;;;;9.68;6.65;;;;;;;;;;5067431;28;20116;-60
2022/05/27 03:36:24;;;;;;;11.95;6.65;;;;;;;;;;5061347;28;20040;-61
2022/05/27 03:38:59;;;;;;;12.48;6.45;;;;;;;;;;5061995;28;20024;-61
2022/05/27 03:41:42;;;;;;;11.63;6.30;;;;;;;;;;5068878;28;20036;-60
2022/05/27 03:44:14;;;;;;;10.15;5.68;;;;;;;;;;5052941;28;20388;-60
2022/05/27 03:46:40;;;;;;;9.15;5.63;;;;;;;;;;5052479;28;20090;-61
2022/05/27 03:49:06;;;;;;;6.57;4.43;;;;;;;;;;5051902;28;20041;-60
2022/05/27 03:51:36;;;;;;;12.68;5.25;;;;;;;;;;5050712;28;20393;-61
2022/05/27 03:54:03;;;;;;;8.48;4.53;;;;;;;;;;5068794;28;20063;-60
2022/05/27 03:56:40;;;;;;;9.73;4.95;;;;;;;;;;5071512;28;20036;-60
2022/05/27 03:59:12;;;;;;;12.63;4.85;;;;;;;;;;5052666;28;20055;-60
2022/05/27 04:01:39;;;;;;;8.50;4.78;;;;;;;;;;5058387;28;20028;-60
2022/05/27 04:04:07;;;;;;;9.52;4.38;;;;;;;;;;5051973;28;20147;-60
2022/05/27 04:06:33;;;;;;;6.53;4.10;;;;;;;;;;5058112;28;20029;-60
2022/05/27 04:08:58;;;;;;;7.88;4.20;;;;;;;;;;5082883;28;20127;-60
2022/05/27 04:11:25;;;;;;;6.07;4.07;;;;;;;;;;5071836;28;20032;-60
2022/05/27 04:13:51;;;;;;;7.57;4.35;;;;;;;;;;5072160;28;20085;-60
2022/05/27 04:16:16;;;;;;;9.25;4.50;;;;;;;;;;5071800;28;20024;-60
2022/05/27 04:18:42;;;;;;;9.70;4.78;;;;;;;;;;5072358;28;20033;-60
2022/05/27 04:21:07;;;;;;;9.60;4.80;;;;;;;;;;5048743;28;20060;-60
2022/05/27 04:23:32;;;;;;;9.82;5.13;;;;;;;;;;5051568;28;20040;-60
2022/05/27 04:25:58;;;;;;;9.77;5.07;;;;;;;;;;5034420;28;20029;-60
2022/05/27 04:28:23;;;;;;;6.45;4.30;;;;;;;;;;5051589;28;20055;-61
2022/05/27 04:30:49;;;;;;;8.90;4.90;;;;;;;;;;5052114;28;20078;-61
2022/05/27 04:33:14;;;;;;;8.20;4.85;;;;;;;;;;5050995;28;20033;-60
2022/05/27 04:35:41;;;;;;;10.35;5.25;;;;;;;;;;5061106;28;20249;-61
2022/05/27 04:38:06;;;;;;;9.73;4.95;;;;;;;;;;5054508;28;20029;-61
2022/05/27 04:40:32;;;;;;;9.50;5.03;;;;;;;;;;5051474;28;20040;-61
2022/05/27 04:42:58;;;;;;;11.32;5.47;;;;;;;;;;5051472;28;20032;-61
2022/05/27 04:45:24;;;;;;;9.85;5.45;;;;;;;;;;5051107;28;20056;-60
2022/05/27 04:47:53;;;;;;;8.18;5.78;;;;;;;;;;5052027;28;20466;-61
2022/05/27 04:50:19;;;;;;;11.75;6.05;;;;;;;;;;5063293;28;20075;-60
2022/05/27 04:52:45;;;;;;;12.25;7.10;;;;;;;;;;5051778;28;20032;-60
2022/05/27 04:55:13;;;;;;;10.98;6.53;;;;;;;;;;5071957;28;20393;-61
2022/05/27 04:57:51;;;;;;;10.80;7.05;;;;;;;;;;5071882;28;20465;-60
2022/05/27 05:00:24;;;;;;;11.00;6.68;;;;;;;;;;5067712;28;20060;-60
2022/05/27 05:02:49;;;;;;;11.10;7.35;;;;;;;;;;5054281;28;20060;-61
2022/05/27 05:05:17;;;;;;;11.85;6.63;;;;;;;;;;5068410;28;20068;-61
2022/05/27 05:07:46;;;;;;;12.75;7.25;;;;;;;;;;5059280;28;20516;-60
2022/05/27 05:10:15;;;;;;;10.35;6.50;;;;;;;;;;5051734;28;20102;-61
2022/05/27 05:12:41;;;;;;;12.90;7.20;;;;;;;;;;5051299;28;20469;-60
2022/05/27 05:15:07;;;;;;;11.18;6.82;;;;;;;;;;5051653;28;20040;-60
2022/05/27 05:17:33;;;;;;;10.82;6.65;;;;;;;;;;5049709;28;20248;-60
2022/05/27 05:19:58;;;;;;;12.27;7.35;;;;;;;;;;5066381;28;20085;-60
2022/05/27 05:22:23;;;;;;;13.55;7.70;;;;;;;;;;5074774;28;20488;-60
2022/05/27 05:24:53;;;;;;;14.20;7.38;;;;;;;;;;5075298;28;20029;-60
2022/05/27 05:27:20;;;;;;;13.93;7.28;;;;;;;;;;5074485;28;20500;-60
2022/05/27 05:29:45;;;;;;;11.75;7.22;;;;;;;;;;5075382;28;20120;-60
2022/05/27 05:32:10;;;;;;;11.73;7.03;;;;;;;;;;5074044;28;20112;-60
2022/05/27 05:34:36;;;;;;;13.73;7.53;;;;;;;;;;5040120;28;20033;-60
2022/05/27 05:37:22;;;;;;;11.73;7.40;;;;;;;;;;5053684;28;20032;-60
2022/05/27 05:39:47;;;;;;;14.50;7.20;;;;;;;;;;5055962;28;20036;-60
2022/05/27 05:42:12;;;;;;;13.45;7.57;;;;;;;;;;5054410;28;20044;-60
2022/05/27 05:44:38;;;;;;;14.77;7.20;;;;;;;;;;5036756;28;20043;-61
2022/05/27 05:47:03;;;;;;;16.20;8.23;;;;;;;;;;5057783;28;20024;-60
2022/05/27 05:49:29;;;;;;;12.23;7.40;;;;;;;;;;5072554;28;20426;-60
2022/05/27 05:51:57;;;;;;;13.27;7.18;;;;;;;;;;5074321;28;20064;-60
2022/05/27 05:54:24;;;;;;;14.10;7.68;;;;;;;;;;5053495;28;20489;-60
2022/05/27 05:56:51;;;;;;;11.13;6.68;;;;;;;;;;5054725;28;20033;-60
2022/05/27 05:59:18;;;;;;;13.00;6.68;;;;;;;;;;5053942;28;20031;-60
2022/05/27 06:01:43;;;;;;;9.95;6.38;;;;;;;;;;5055012;28;20366;-60
2022/05/27 06:04:09;;;;;;;12.52;6.90;;;;;;;;;;5054892;28;20040;-60
2022/05/27 06:06:36;;;;;;;12.00;6.57;;;;;;;;;;5061398;28;20064;-60
2022/05/27 06:09:02;;;;;;;12.95;7.35;;;;;;;;;;5054643;28;20029;-61
2022/05/27 06:11:27;;;;;;;12.30;6.47;;;;;;;;;;5054030;28;20056;-60
2022/05/27 06:13:53;;;;;;;11.23;6.40;;;;;;;;;;5053547;28;20124;-61
2022/05/27 06:16:18;;;;;;;13.25;6.63;;;;;;;;;;5058504;28;20424;-61
2022/05/27 06:18:43;;;;;;;14.90;6.40;;;;;;;;;;5072065;28;20036;-61
2022/05/27 06:21:09;;;;;;;14.85;7.47;;;;;;;;;;5074314;28;20052;-61
2022/05/27 06:23:35;;;;;;;10.23;5.63;;;;;;;;;;5073537;28;20595;-61
2022/05/27 06:26:06;;;;;;;19.38;5.97;;;;;;;;;;5073846;28;20479;-61
2022/05/27 06:36:45;;;;;;;10.25;4.78;;;;;;;;;;5074073;28;20066;-62
2022/05/27 06:39:11;;;;;;;10.13;4.65;;;;;;;;;;5056093;28;20032;-62
2022/05/27 06:41:37;;;;;;;9.00;4.90;;;;;;;;;;5055402;28;20381;-62
2022/05/27 06:44:04;;;;;;;8.70;4.60;;;;;;;;;;5073734;28;20074;-62
2022/05/27 06:46:31;;;;;;;11.60;4.50;;;;;;;;;;5052966;28;20028;-63
2022/05/27 06:48:56;;;;;;;7.78;3.67;;;;;;;;;;5070166;28;20031;-63
2022/05/27 06:51:22;;;;;;;10.30;4.07;;;;;;;;;;5071449;28;20419;-63
2022/05/27 06:53:47;;;;;;;10.02;4.50;;;;;;;;;;5055458;28;20053;-64
2022/05/27 06:56:14;;;;;;;7.13;4.00;;;;;;;;;;5055783;28;20025;-64
2022/05/27 06:58:40;;;;;;;8.55;3.90;;;;;;;;;;5054992;28;20690;-63
2022/05/27 07:01:07;;;;;;;9.32;3.90;;;;;;;;;;5071764;28;20111;-64
2022/05/27 07:03:32;;;;;;;7.55;4.05;;;;;;;;;;5053753;28;20174;-65
2022/05/27 07:05:58;;;;;;;7.13;3.75;;;;;;;;;;5044950;28;20470;-63
2022/05/27 07:08:24;;;;;;;10.57;3.65;;;;;;;;;;5054934;28;20423;-63
2022/05/27 07:10:49;;;;;;;9.65;3.42;;;;;;;;;;5073332;28;20028;-64
2022/05/27 07:13:14;;;;;;;8.07;3.30;;;;;;;;;;5072626;28;20113;-63
2022/05/27 07:15:41;;;;;;;9.25;3.40;;;;;;;;;;5053251;28;20105;-63
2022/05/27 07:18:08;;;;;;;8.13;3.00;;;;;;;;;;5057106;28;20035;-64
2022/05/27 07:20:36;;;;;;;9.13;3.05;;;;;;;;;;5062806;28;20116;-63
2022/05/27 07:23:03;;;;;;;9.40;3.08;;;;;;;;;;5071173;28;20032;-63
2022/05/27 07:25:31;;;;;;;6.55;2.65;;;;;;;;;;5072391;28;20039;-63
2022/05/27 07:27:57;;;;;;;10.88;3.13;;;;;;;;;;5072972;28;20396;-62
2022/05/27 07:30:22;;;;;;;9.25;2.65;;;;;;;;;;5070578;28;20029;-62
2022/05/27 07:32:48;;;;;;;9.05;2.90;;;;;;;;;;5067458;28;20388;-62
2022/05/27 07:35:14;;;;;;;9.68;2.78;;;;;;;;;;5062054;28;20124;-62
2022/05/27 07:37:39;;;;;;;8.90;2.83;;;;;;;;;;5059600;28;20036;-61
2022/05/27 07:40:06;;;;;;;12.38;3.10;;;;;;;;;;5052530;28;20025;-62
2022/05/27 07:42:31;;;;;;;8.20;3.08;;;;;;;;;;5056221;28;20405;-60
2022/05/27 07:44:56;;;;;;;9.88;2.90;;;;;;;;;;5071678;28;20043;-59
2022/05/27 07:47:22;;;;;;;6.35;2.53;;;;;;;;;;5073027;28;20385;-59
2022/05/27 07:49:48;;;;;;;7.78;2.60;;;;;;;;;;5065465;28;20113;-59
2022/05/27 07:52:13;;;;;;;8.93;3.03;;;;;;;;;;5070272;28;20033;-59
2022/05/27 07:54:39;;;;;;;7.82;3.03;;;;;;;;;;5052931;28;20053;-61
2022/05/27 07:57:23;;;;;;;9.20;2.78;;;;;;;;;;5052676;28;20072;-59
2022/05/27 07:59:50;;;;;;;7.63;3.50;;;;;;;;;;5053442;28;20048;-60
2022/05/27 08:02:16;;;;;;;11.32;3.75;;;;;;;;;;5052188;28;20118;-61
2022/05/27 08:04:41;;;;;;;8.65;2.80;;;;;;;;;;5054718;28;20469;-61
2022/05/27 08:07:07;;;;;;;8.35;3.35;;;;;;;;;;5054501;28;20060;-61
2022/05/27 08:09:32;;;;;;;10.43;3.70;;;;;;;;;;5061937;28;20036;-62
2022/05/27 08:11:57;;;;;;;9.43;3.67;;;;;;;;;;5054241;28;20090;-64
2022/05/27 08:14:23;;;;;;;9.45;3.63;;;;;;;;;;5051938;28;20075;-60
2022/05/27 08:16:48;;;;;;;9.85;3.72;;;;;;;;;;5051275;28;20108;-64
2022/05/27 08:19:13;;;;;;;9.63;4.05;;;;;;;;;;5051896;28;20054;-63
2022/05/27 08:21:39;;;;;;;9.27;4.20;;;;;;;;;;5051492;28;20512;-59
2022/05/27 08:24:07;;;;;;;12.57;4.20;;;;;;;;;;5060085;28;20040;-59
2022/05/27 08:26:33;;;;;;;9.23;4.22;;;;;;;;;;5063218;28;20461;-60
2022/05/27 08:28:58;;;;;;;14.52;4.15;;;;;;;;;;5051133;28;20090;-59
2022/05/27 08:31:24;;;;;;;11.60;4.50;;;;;;;;;;5072046;28;20389;-59
2022/05/27 08:39:17;;;;;;;7.95;3.50;;;;;;;;;;5069058;28;20115;-60
2022/05/27 08:42:07;;;;;;;9.77;3.38;;;;;;;;;;5062066;28;20188;-60
2022/05/27 08:44:51;;;;;;;7.82;3.25;;;;;;;;;;5051347;28;20025;-60
2022/05/27 08:47:20;;;;;;;8.75;3.17;;;;;;;;;;5051892;28;20139;-60
2022/05/27 08:49:50;;;;;;;8.40;2.90;;;;;;;;;;5050565;28;20216;-61
2022/05/27 08:52:38;;;;;;;7.03;2.50;;;;;;;;;;5062250;28;20025;-60
2022/05/27 09:01:20;;;;;;;4.82;2.22;;;;;;;;;;5056950;28;20052;-61
2022/05/27 09:03:51;;;;;;;7.53;2.35;;;;;;;;;;5037172;28;20044;-60
2022/05/27 09:06:30;;;;;;;7.32;2.30;;;;;;;;;;5062578;28;20029;-60
2022/05/27 09:08:56;;;;;;;7.80;2.63;;;;;;;;;;5071082;28;20048;-60
2022/05/27 09:11:34;;;;;;;8.48;2.60;;;;;;;;;;5061631;28;20048;-60
2022/05/27 09:14:14;;;;;;;6.22;2.50;;;;;;;;;;5054847;28;20037;-60
2022/05/27 09:16:58;;;;;;;8.37;3.10;;;;;;;;;;5054896;28;20040;-60
2022/05/27 09:19:29;;;;;;;6.30;2.55;;;;;;;;;;5062856;28;20461;-60
2022/05/27 09:22:28;;;;;;;6.95;2.28;;;;;;;;;;5057316;28;20032;-60
2022/05/27 09:24:57;;;;;;;9.73;2.67;;;;;;;;;;5055409;28;20048;-60
2022/05/27 09:27:46;;;;;;;5.85;2.40;;;;;;;;;;5075533;28;20418;-60
2022/05/27 09:30:15;;;;;;;10.82;2.40;;;;;;;;;;5074874;28;20044;-60
2022/05/27 09:32:58;;;;;;;11.45;3.20;;;;;;;;;;5074089;28;20051;-60
2022/05/27 09:35:32;;;;;;;5.18;2.70;;;;;;;;;;5074730;28;20444;-60
2022/05/27 09:38:01;;;;;;;9.50;3.28;;;;;;;;;;5057901;28;20044;-60
2022/05/27 09:40:42;;;;;;;5.55;2.60;;;;;;;;;;5054976;28;20056;-61
2022/05/27 09:43:24;;;;;;;;;;;;;;;;;;5058201;28;20421;-60
2022/05/27 09:46:02;;;;;;;8.07;2.75;;;;;;;;;;5055871;28;19973;-60
2022/05/27 09:48:28;;;;;;;5.25;2.25;;;;;;;;;;5073259;28;20036;-60
2022/05/27 09:50:57;;;;;;;8.13;2.67;;;;;;;;;;5062854;28;20090;-60
2022/05/27 09:53:48;;;;;;;10.27;2.50;;;;;;;;;;5072899;28;20044;-59
2022/05/27 09:56:15;;;;;;;7.78;2.38;;;;;;;;;;5074548;28;20082;-59
2022/05/27 09:58:44;;;;;;;6.57;2.28;;;;;;;;;;5073690;28;20085;-59
2022/05/27 10:01:27;;;;;;;5.40;2.15;;;;;;;;;;5061134;28;20033;-59
2022/05/27 10:04:06;;;;;;;11.77;2.70;;;;;;;;;;5053789;28;20120;-59
2022/05/27 10:06:34;;;;;;;8.35;2.40;;;;;;;;;;5061617;28;20040;-60
2022/05/27 10:09:06;;;;;;;6.18;2.25;;;;;;;;;;5072292;28;20056;-59
2022/05/27 10:11:34;;;;;;;7.57;2.63;;;;;;;;;;5073902;28;20024;-60
2022/05/27 10:14:06;;;;;;;7.95;2.45;;;;;;;;;;5071751;28;20036;-60
2022/05/27 10:16:33;;;;;;;9.02;2.47;;;;;;;;;;5065715;28;20108;-60
2022/05/27 10:19:14;;;;;;;8.18;2.42;;;;;;;;;;5074475;28;20039;-59
2022/05/27 10:21:59;;;;;;;9.73;2.50;;;;;;;;;;5065986;28;20079;-60
2022/05/27 10:24:32;;;;;;;6.88;2.42;;;;;;;;;;5036219;28;20041;-60
2022/05/27 10:27:17;;;;;;;9.20;2.60;;;;;;;;;;5054233;28;20028;-59
2022/05/27 10:29:58;;;;;;;7.82;2.67;;;;;;;;;;5052760;28;20063;-59
2022/05/27 10:32:31;;;;;;;7.35;2.65;;;;;;;;;;5070204;28;20044;-60
2022/05/27 10:34:58;;;;;;;8.93;2.17;;;;;;;;;;5073090;28;20024;-61
2022/05/27 10:37:44;;;;;;;9.68;2.60;;;;;;;;;;5070628;28;20067;-59
2022/05/27 10:40:28;;;;;;;6.30;2.20;;;;;;;;;;5074187;28;20032;-61
2022/05/27 10:43:01;;;;;;;7.00;2.40;;;;;;;;;;5073277;28;20032;-59
2022/05/27 10:45:49;;;;;;;7.22;2.30;;;;;;;;;;5064990;28;20037;-58
2022/05/27 10:48:35;;;;;;;6.72;2.35;;;;;;;;;;5063347;28;20068;-60
2022/05/27 10:51:15;;;;;;;7.25;2.47;;;;;;;;;;5070696;28;20037;-61
2022/05/27 10:53:52;;;;;;;7.93;2.78;;;;;;;;;;5052693;28;20059;-59
2022/05/27 10:56:18;;;;;;;7.07;2.28;;;;;;;;;;5053423;28;20024;-59
2022/05/27 11:02:12;;;;;;;9.32;2.40;;;;;;;;;;5053296;28;20044;-59
2022/05/27 11:05:16;;;;;;;7.75;2.47;;;;;;;;;;5042599;28;20040;-59
2022/05/27 11:08:02;;;;;;;8.07;3.13;;;;;;;;;;5064532;28;20404;-60
2022/05/27 11:10:36;;;;;;;7.68;2.45;;;;;;;;;;5053280;28;20041;-59
2022/05/27 11:16:59;;;;;;;4.68;2.08;;;;;;;;;;5041399;28;20559;-58
2022/05/27 11:19:38;;;;;;;11.00;2.40;;;;;;;;;;5033993;28;20080;-59
2022/05/27 11:22:35;;;;;;;7.63;2.22;;;;;;;;;;5061925;28;20475;-59
2022/05/27 11:25:52;;;;;;;6.78;2.25;;;;;;;;;;5088306;28;20028;-59
2022/05/27 11:28:51;;;;;;;8.63;2.45;;;;;;;;;;5027071;28;20469;-59
2022/05/27 11:31:31;;;;;;;8.82;2.53;;;;;;;;;;5052936;28;20035;-58
2022/05/27 11:34:18;;;;;;;6.38;2.55;;;;;;;;;;5052135;28;20025;-59
2022/05/27 11:37:22;;;;;;;7.85;2.80;;;;;;;;;;5053101;28;20115;-59
2022/05/27 11:40:20;;;;;;;8.32;2.42;;;;;;;;;;5021183;28;20044;-60
2022/05/27 11:43:16;;;;;;;8.15;2.88;;;;;;;;;;5044526;28;20044;-60
2022/05/27 11:45:59;;;;;;;9.57;2.83;;;;;;;;;;5066327;28;20043;-59
2022/05/27 11:48:46;;;;;;;8.15;2.95;;;;;;;;;;5070382;28;20067;-59
2022/05/27 11:51:42;;;;;;;9.05;2.70;;;;;;;;;;5069044;28;20028;-60
2022/05/27 11:54:22;;;;;;;6.28;2.38;;;;;;;;;;5054086;28;20489;-60
2022/05/27 11:57:07;;;;;;;7.32;1.90;;;;;;;;;;5071664;28;20048;-59
2022/05/27 11:59:38;;;;;;;11.57;2.55;;;;;;;;;;5071120;28;20028;-58
2022/05/27 12:02:27;;;;;;;8.95;2.40;;;;;;;;;;5069581;28;20086;-62
2022/05/27 12:05:14;;;;;;;9.35;2.50;;;;;;;;;;5061468;28;20469;-60
2022/05/27 12:07:58;;;;;;;4.53;1.85;;;;;;;;;;5052710;28;20040;-60
2022/05/27 12:10:38;;;;;;;6.85;2.38;;;;;;;;;;5055023;28;20427;-59
2022/05/27 12:13:32;;;;;;;10.10;2.58;;;;;;;;;;5072216;28;20155;-59
2022/05/27 12:16:14;;;;;;;7.40;2.90;;;;;;;;;;5069849;28;20043;-59
2022/05/27 12:18:46;;;;;;;12.52;2.83;;;;;;;;;;5051455;28;20033;-60
2022/05/27 12:21:21;;;;;;;8.63;2.40;;;;;;;;;;5051323;28;20061;-58
2022/05/27 12:24:17;;;;;;;7.53;2.97;;;;;;;;;;5064879;28;20039;-59
2022/05/27 12:26:43;;;;;;;8.15;2.55;;;;;;;;;;5060508;28;20437;-61
2022/05/27 12:29:12;;;;;;;7.32;2.58;;;;;;;;;;5070937;28;20025;-57
2022/05/27 12:31:39;;;;;;;7.65;2.45;;;;;;;;;;5040870;28;20040;-58
2022/05/27 12:34:26;;;;;;;8.35;2.80;;;;;;;;;;5051198;28;20385;-58
2022/05/27 12:37:00;;;;;;;8.05;2.45;;;;;;;;;;5051480;28;20037;-59
2022/05/27 12:39:30;;;;;;;6.75;2.20;;;;;;;;;;5072149;28;20094;-58
2022/05/27 12:42:19;;;;;;;8.30;1.95;;;;;;;;;;5053383;28;20036;-59
2022/05/27 12:44:47;;;;;;;7.88;2.10;;;;;;;;;;5071346;28;20037;-58
2022/05/27 12:47:22;;;;;;;9.20;2.58;;;;;;;;;;5072105;28;20037;-58
2022/05/27 12:49:58;;;;;;;10.13;2.58;;;;;;;;;;5066998;28;20029;-58
2022/05/27 12:52:30;;;;;;;7.60;2.30;;;;;;;;;;5070064;28;20059;-57
2022/05/27 12:54:58;;;;;;;8.57;2.28;;;;;;;;;;5063943;28;20041;-58
2022/05/27 13:03:07;;;;;;;7.05;2.40;;;;;;;;;;5068695;28;20514;-60
2022/05/27 13:06:01;;;;;;;8.68;2.20;;;;;;;;;;5071727;28;20072;-59
2022/05/27 13:08:33;;;;;;;8.75;2.33;;;;;;;;;;5069876;28;20058;-56
2022/05/27 13:10:58;;;;;;;9.35;2.38;;;;;;;;;;5071299;28;20036;-60
2022/05/27 13:13:30;;;;;;;8.30;2.22;;;;;;;;;;5069751;28;20143;-58
2022/05/27 13:16:33;;;;;;;8.98;2.33;;;;;;;;;;5068383;28;20040;-58
2022/05/27 13:19:18;;;;;;;8.00;2.20;;;;;;;;;;4985869;28;20030;-58
2022/05/27 13:21:56;;;;;;;9.68;2.10;;;;;;;;;;5047493;28;20128;-60
2022/05/27 13:24:30;;;;;;;8.48;2.17;;;;;;;;;;5056471;28;20091;-59
2022/05/27 13:26:58;;;;;;;10.25;2.35;;;;;;;;;;5051267;28;20037;-58
2022/05/27 13:29:38;;;;;;;9.85;2.60;;;;;;;;;;5051624;28;20053;-56
2022/05/27 13:32:09;;;;;;;8.30;2.40;;;;;;;;;;5064691;28;20044;-58
2022/05/27 13:34:59;;;;;;;6.72;2.00;;;;;;;;;;5071243;28;20033;-59
2022/05/27 13:37:52;;;;;;;4.22;1.70;;;;;;;;;;5069332;28;20028;-58
2022/05/27 13:40:33;;;;;;;7.93;2.08;;;;;;;;;;5046809;28;20548;-59
2022/05/27 13:43:05;;;;;;;;;;;;;;;;;;5074926;28;20032;-59
2022/05/27 13:45:47;;;;;;;3.83;1.73;;;;;;;;;;5067403;28;19916;-58
2022/05/27 13:48:27;;;;;;;6.60;2.00;;;;;;;;;;5074973;28;20253;-58
2022/05/27 13:51:08;;;;;;;5.90;2.25;;;;;;;;;;5074121;28;20434;-58
2022/05/27 13:53:35;;;;;;;8.15;2.35;;;;;;;;;;5072449;28;20049;-57
2022/05/27 13:56:26;;;;;;;6.00;1.92;;;;;;;;;;5050199;28;20065;-58
2022/05/27 13:59:04;;;;;;;6.82;2.00;;;;;;;;;;5054151;28;20037;-58
2022/05/27 14:01:44;;;;;;;9.07;2.25;;;;;;;;;;5057502;28;20029;-59
2022/05/27 14:04:24;;;;;;;8.05;2.08;;;;;;;;;;5054880;28;20029;-59
2022/05/27 14:06:50;;;;;;;6.72;1.73;;;;;;;;;;5061728;28;20461;-58
2022/05/27 14:09:23;;;;;;;7.70;2.10;;;;;;;;;;5073072;28;20101;-59
2022/05/27 14:11:55;;;;;;;7.30;2.03;;;;;;;;;;5073901;28;20146;-60
2022/05/27 14:14:29;;;;;;;7.63;1.85;;;;;;;;;;5072270;28;20033;-61
2022/05/27 14:16:55;;;;;;;12.02;2.28;;;;;;;;;;5053435;28;20488;-60
2022/05/27 14:19:28;;;;;;;7.10;2.03;;;;;;;;;;5054455;28;20060;-58
2022/05/27 14:24:50;;;;;;;8.82;2.05;;;;;;;;;;5057373;28;20052;-60
2022/05/27 14:27:25;;;;;;;7.10;2.17;;;;;;;;;;5063793;28;20033;-60
2022/05/27 14:29:56;;;;;;;5.18;2.05;;;;;;;;;;5070986;28;20745;-60
2022/05/27 14:32:23;;;;;;;9.45;2.40;;;;;;;;;;5036511;28;20033;-59
2022/05/27 14:34:58;;;;;;;7.85;2.15;;;;;;;;;;5053707;28;20098;-60
2022/05/27 14:37:53;;;;;;;5.88;2.20;;;;;;;;;;5054381;28;20051;-60
2022/05/27 14:40:24;;;;;;;5.97;1.90;;;;;;;;;;5056374;28;20059;-60
2022/05/27 14:42:50;;;;;;;10.98;2.10;;;;;;;;;;5053295;28;20040;-60
2022/05/27 14:45:42;;;;;;;9.55;2.80;;;;;;;;;;5044813;28;20032;-59
2022/05/27 14:48:36;;;;;;;9.32;2.20;;;;;;;;;;5073153;28;20391;-60
2022/05/27 14:51:42;;;;;;;7.15;2.22;;;;;;;;;;5072597;28;20452;-59
2022/05/27 14:54:30;;;;;;;7.43;2.22;;;;;;;;;;5057124;28;20476;-59
2022/05/27 14:57:14;;;;;;;7.82;2.15;;;;;;;;;;5042984;28;20399;-59
2022/05/27 14:59:46;;;;;;;5.18;1.55;;;;;;;;;;5060409;28;20421;-59
2022/05/27 15:02:21;;;;;;;8.73;1.83;;;;;;;;;;5071159;28;20115;-59
2022/05/27 15:05:01;;;;;;;10.40;2.38;;;;;;;;;;5069276;28;20056;-59
2022/05/27 15:07:31;;;;;;;;;;;;;;;;;;5058099;28;20025;-58
2022/05/27 15:10:00;;;;;;;3.08;1.25;;;;;;;;;;5052857;28;20011;-58
2022/05/27 15:12:32;;;;;;;7.03;2.03;;;;;;;;;;5053363;28;20024;-61
2022/05/27 15:14:58;;;;;;;7.68;1.90;;;;;;;;;;5056171;28;20029;-60
2022/05/27 15:17:27;;;;;;;10.45;2.00;;;;;;;;;;5073190;28;20031;-59
2022/05/27 15:20:13;;;;;;;7.20;2.08;;;;;;;;;;5052432;28;20029;-60
2022/05/27 15:22:53;;;;;;;8.35;2.10;;;;;;;;;;5053101;28;20025;-59
2022/05/27 15:25:23;;;;;;;11.48;2.03;;;;;;;;;;5068221;28;20149;-59
2022/05/27 15:33:47;;;;;;;7.72;2.17;;;;;;;;;;5051735;28;20501;-59
2022/05/27 15:36:13;;;;;;;7.15;2.35;;;;;;;;;;5052152;28;20379;-59
2022/05/27 15:38:40;;;;;;;11.55;2.10;;;;;;;;;;5051576;28;20029;-59
2022/05/27 15:41:08;;;;;;;10.45;2.80;;;;;;;;;;5052241;28;20454;-59
2022/05/27 15:43:37;;;;;;;6.97;2.15;;;;;;;;;;5052477;28;20033;-59
2022/05/27 15:46:06;;;;;;;10.07;2.15;;;;;;;;;;5051988;28;20029;-59
2022/05/27 15:48:32;;;;;;;10.63;2.05;;;;;;;;;;5059064;28;20047;-59
2022/05/27 15:51:00;;;;;;;6.22;1.90;;;;;;;;;;5071819;28;20048;-59
2022/05/27 15:53:25;;;;;;;10.85;2.42;;;;;;;;;;5059033;28;20058;-59
2022/05/27 15:55:51;;;;;;;9.65;1.95;;;;;;;;;;5068663;28;20412;-59
2022/05/27 15:58:18;;;;;;;7.70;1.75;;;;;;;;;;5072628;28;20150;-59
2022/05/27 16:00:45;;;;;;;10.00;2.70;;;;;;;;;;5060142;28;20087;-60